Time;durP1;ratioP1;P1;durP2;ratioP2;P2;SDS_P1;SDS_P2;PMS_P1;PMS_P2;Temp;Humidity;BMP_temperature;BMP_pressure;BME280_temperature;BME280_humidity;BME280_pressure;Samples;Min_cycle;Max_cycle;Signal;HPM_P1;HPM_P2
2021/03/27 00:01:09;;;;;;;9.10;6.03;;;10.20;99.90;;;10.68;37.95;94364.47;4926197;29;20194;-81
2021/03/27 00:04:18;;;;;;;8.50;5.60;;;10.10;99.90;;;10.79;37.81;94374.09;4941880;29;20195;-81
2021/03/27 00:07:08;;;;;;;7.07;5.50;;;10.20;99.90;;;10.88;38.14;94367.25;4958279;28;20284;-80
2021/03/27 00:09:46;;;;;;;7.63;4.97;;;10.30;99.90;;;11.11;37.89;94385.47;4981337;28;20342;-81
2021/03/27 00:12:49;;;;;;;6.47;4.50;;;10.40;99.90;;;11.34;38.31;94360.41;4980516;28;20243;-81
2021/03/27 00:15:40;;;;;;;4.53;3.40;;;10.50;99.90;;;11.66;37.97;94352.31;4996264;28;20543;-80
2021/03/27 00:18:23;;;;;;;3.20;2.90;;;10.80;99.90;;;11.89;38.37;94351.91;4966196;28;20691;-81
2021/03/27 00:21:28;;;;;;;4.37;3.60;;;11.00;99.90;;;11.79;38.40;94343.91;5029897;28;20187;-81
2021/03/27 00:24:50;;;;;;;6.70;4.70;;;11.00;99.90;;;11.62;38.20;94354.69;5057318;28;20219;-81
2021/03/27 00:27:59;;;;;;;10.33;7.90;;;11.00;99.90;;;11.45;38.58;94363.91;5058177;28;20173;-79
2021/03/27 00:31:02;;;;;;;6.10;5.50;;;10.90;99.90;;;11.33;38.56;94367.56;4993460;28;20198;-81
2021/03/27 00:34:04;;;;;;;6.50;5.80;;;10.80;99.90;;;11.33;38.62;94375.53;4981173;28;20228;-80
2021/03/27 00:36:37;;;;;;;10.27;5.80;;;10.70;99.90;;;11.41;38.92;94376.91;4904620;29;20291;-80
2021/03/27 00:39:24;;;;;;;12.03;9.83;;;10.80;99.90;;;11.35;38.93;94383.22;4904709;29;20202;-81
2021/03/27 00:42:01;;;;;;;7.97;6.43;;;10.70;99.90;;;11.22;38.89;94388.97;4904634;29;20191;-81
2021/03/27 00:44:49;;;;;;;9.73;6.60;;;10.60;99.90;;;11.12;38.81;94387.06;4916643;29;20205;-82
2021/03/27 00:47:40;;;;;;;7.90;6.83;;;10.60;99.90;;;11.04;39.18;94392.88;4862265;29;20222;-81
2021/03/27 00:50:55;;;;;;;9.60;7.23;;;10.50;99.90;;;11.00;39.39;94386.47;4867290;29;20184;-81
2021/03/27 00:54:12;;;;;;;8.40;7.07;;;10.50;99.90;;;10.87;39.59;94371.00;4845993;29;20206;-81
2021/03/27 00:57:17;;;;;;;8.53;7.43;;;10.40;99.90;;;10.62;39.77;94358.34;4827920;29;20230;-81
2021/03/27 01:00:33;;;;;;;8.60;7.40;;;10.20;99.90;;;10.51;39.58;94372.53;4828121;29;20278;-79
2021/03/27 01:03:20;;;;;;;9.30;7.57;;;10.10;99.90;;;10.48;40.02;94369.59;4846510;29;20191;-81
2021/03/27 01:05:49;;;;;;;13.00;7.83;;;10.10;99.90;;;10.41;40.26;94359.19;4854087;29;20200;-81
2021/03/27 01:08:51;;;;;;;13.67;9.27;;;10.00;99.90;;;10.35;40.28;94362.88;4862813;29;20199;-82
2021/03/27 01:11:49;;;;;;;8.53;7.63;;;9.90;99.90;;;10.28;40.53;94355.13;4815060;29;20191;-82
2021/03/27 01:14:21;;;;;;;11.90;8.10;;;9.90;99.90;;;10.31;40.32;94345.09;4901452;29;20207;-82
2021/03/27 01:16:57;;;;;;;9.53;8.33;;;9.90;99.90;;;10.19;40.61;94342.59;4900987;29;20224;-82
2021/03/27 01:19:59;;;;;;;8.40;7.43;;;9.80;99.90;;;10.15;40.64;94365.31;4932287;29;21004;-82
2021/03/27 01:22:57;;;;;;;8.53;7.10;;;9.70;99.90;;;10.06;40.81;94353.56;4934565;29;20226;-82
2021/03/27 01:25:39;;;;;;;9.03;8.00;;;9.60;99.90;;;10.09;41.10;94369.75;4871066;29;20634;-82
2021/03/27 01:28:36;;;;;;;9.23;7.23;;;9.60;99.90;;;9.95;40.89;94373.81;4881936;29;20200;-83
2021/03/27 01:31:18;;;;;;;12.53;9.63;;;9.50;99.90;;;9.91;41.41;94382.50;4909839;29;20666;-82
2021/03/27 01:34:40;;;;;;;11.27;8.07;;;9.40;99.90;;;9.89;41.11;94377.47;4942094;29;20696;-82
2021/03/27 01:37:30;;;;;;;6.77;6.10;;;9.30;99.90;;;9.91;41.21;94385.16;4938879;29;20206;-82
2021/03/27 01:40:32;;;;;;;7.27;6.00;;;9.30;99.90;;;9.85;41.39;94384.31;4923455;29;20261;-82
2021/03/27 01:44:01;;;;;;;6.37;5.67;;;9.20;99.90;;;9.71;41.69;94398.94;4938631;29;20202;-82
2021/03/27 01:46:40;;;;;;;7.20;5.93;;;9.10;99.90;;;9.64;41.62;94393.03;4891189;29;20354;-81
2021/03/27 01:49:43;;;;;;;5.77;5.17;;;9.00;99.90;;;9.69;41.60;94401.88;4920002;29;20206;-82
2021/03/27 01:53:02;;;;;;;6.13;4.93;;;9.00;99.90;;;9.73;41.89;94396.88;4927722;29;20232;-82
2021/03/27 01:56:35;;;;;;;5.47;4.57;;;9.00;99.90;;;9.66;41.90;94402.34;4935802;29;20194;-82
2021/03/27 02:00:09;;;;;;;5.93;5.23;;;8.90;99.90;;;9.68;42.20;94387.03;4928502;29;20245;-82
2021/03/27 02:03:15;;;;;;;5.20;4.70;;;8.90;99.90;;;9.61;42.98;94396.19;4905271;29;20336;-82
2021/03/27 02:06:31;;;;;;;6.00;5.47;;;8.90;99.90;;;9.63;42.78;94394.91;4902698;29;20189;-82
2021/03/27 02:09:29;;;;;;;4.07;3.50;;;8.80;99.90;;;9.53;42.93;94394.78;4925644;29;20267;-82
2021/03/27 02:12:54;;;;;;;4.43;3.60;;;8.80;99.90;;;9.49;43.18;94385.72;4938256;29;20195;-82
2021/03/27 02:15:40;;;;;;;4.87;3.80;;;8.70;99.90;;;9.41;43.33;94380.06;4885149;29;20275;-82
2021/03/27 02:18:25;;;;;;;3.80;3.20;;;8.60;99.90;;;9.37;43.52;94376.31;4913868;29;20212;-80
2021/03/27 02:21:28;;;;;;;4.27;3.57;;;8.60;99.90;;;9.37;43.09;94386.91;4930166;29;20275;-81
2021/03/27 02:24:25;;;;;;;4.63;2.93;;;8.60;99.90;;;9.27;43.29;94388.34;4922777;29;20196;-82
2021/03/27 02:27:32;;;;;;;3.80;3.40;;;8.50;99.90;;;9.27;44.00;94408.69;4902792;29;20191;-82
2021/03/27 02:30:14;;;;;;;3.00;2.60;;;8.50;99.90;;;9.27;43.76;94396.28;4875081;29;20553;-82
2021/03/27 02:33:21;;;;;;;2.90;2.57;;;8.50;99.90;;;9.23;43.75;94397.03;4903063;29;20201;-82
2021/03/27 02:36:37;;;;;;;3.20;2.90;;;8.50;99.90;;;9.25;44.05;94410.78;4872406;29;20244;-81
2021/03/27 02:39:20;;;;;;;3.07;2.77;;;8.50;99.90;;;9.15;43.68;94418.59;4902722;29;20210;-82
2021/03/27 02:42:08;;;;;;;3.90;3.17;;;8.30;99.90;;;9.12;44.39;94419.06;4902933;29;20243;-82
2021/03/27 02:45:23;;;;;;;3.77;3.40;;;8.30;99.90;;;9.00;44.62;94418.38;4902710;29;20280;-81
2021/03/27 02:48:48;;;;;;;4.43;2.97;;;8.20;99.90;;;9.14;44.52;94430.19;4959443;29;20191;-81
2021/03/27 02:51:27;;;;;;;3.80;3.40;;;8.30;99.90;;;9.07;45.32;94438.28;4942503;29;20196;-82
2021/03/27 02:54:40;;;;;;;4.97;3.60;;;8.20;99.90;;;9.00;45.17;94439.53;4943870;29;20176;-82
2021/03/27 02:57:39;;;;;;;5.10;4.13;;;8.20;99.90;;;8.96;45.12;94448.97;4931650;28;20563;-82
2021/03/27 03:00:27;;;;;;;3.87;3.43;;;8.10;99.90;;;8.91;45.50;94457.59;4960096;29;20172;-83
2021/03/27 03:03:29;;;;;;;4.23;3.67;;;8.00;99.90;;;8.91;45.43;94459.44;4945537;28;20208;-82
2021/03/27 03:06:53;;;;;;;5.20;4.37;;;8.00;99.90;;;8.84;45.33;94464.88;4940686;29;20188;-82
2021/03/27 03:10:28;;;;;;;5.13;3.93;;;7.90;99.90;;;8.86;46.05;94476.03;4939929;29;20346;-82
2021/03/27 03:13:33;;;;;;;5.10;4.60;;;7.90;99.90;;;8.80;46.15;94481.47;4936614;29;20189;-82
2021/03/27 03:16:26;;;;;;;4.30;3.77;;;7.90;99.90;;;8.64;46.01;94483.03;4904837;29;20190;-81
2021/03/27 03:19:22;;;;;;;3.93;3.53;;;7.90;99.90;;;8.59;45.76;94493.53;4936483;29;20192;-82
2021/03/27 03:22:36;;;;;;;3.97;3.60;;;7.80;99.90;;;8.57;46.50;94509.59;4883068;29;20205;-82
2021/03/27 03:25:12;;;;;;;4.37;3.97;;;7.80;99.90;;;8.52;47.12;94514.81;4827396;29;20193;-81
2021/03/27 03:28:40;;;;;;;4.80;4.17;;;7.70;99.90;;;8.53;47.10;94526.97;4824160;29;20174;-82
2021/03/27 03:31:48;;;;;;;4.63;4.23;;;7.70;99.90;;;8.47;46.59;94529.75;4815958;29;20205;-82
2021/03/27 03:34:56;;;;;;;6.30;4.40;;;7.60;99.90;;;8.49;46.63;94541.69;4810189;29;20701;-82
2021/03/27 03:38:17;;;;;;;7.30;4.30;;;7.60;99.90;;;8.50;47.59;94545.94;4809235;29;20622;-82
2021/03/27 03:41:05;;;;;;;5.00;4.00;;;7.60;99.90;;;8.39;46.70;94544.16;4818271;29;20209;-82
2021/03/27 03:44:20;;;;;;;4.33;3.87;;;7.60;99.90;;;8.45;46.37;94566.16;4824746;29;20193;-82
2021/03/27 03:47:17;;;;;;;4.63;3.60;;;7.60;99.90;;;8.38;47.50;94558.38;4806736;29;20635;-81
2021/03/27 03:49:55;;;;;;;4.87;4.10;;;7.50;99.90;;;8.43;47.40;94576.16;4809174;29;20289;-82
2021/03/27 03:53:00;;;;;;;3.37;2.97;;;7.60;99.90;;;8.32;48.17;94579.66;4805350;29;20740;-81
2021/03/27 03:56:34;;;;;;;3.23;2.70;;;7.50;99.90;;;8.23;47.86;94587.88;4833625;29;20215;-82
2021/03/27 04:00:06;;;;;;;3.13;2.47;;;7.50;99.90;;;8.17;47.03;94590.66;4911355;29;20200;-82
2021/03/27 04:02:47;;;;;;;2.03;1.43;;;7.40;99.90;;;8.09;48.07;94591.03;4921586;29;20192;-82
2021/03/27 04:05:32;;;;;;;1.80;1.13;;;7.30;99.90;;;7.90;48.50;94592.97;4901189;29;20237;-82
2021/03/27 04:08:39;;;;;;;1.57;1.03;;;7.10;99.90;;;7.85;47.64;94595.53;4969762;28;20191;-82
2021/03/27 04:11:37;;;;;;;1.97;1.17;;;7.00;99.90;;;7.78;48.37;94605.38;4961654;28;20230;-81
2021/03/27 04:14:35;;;;;;;1.13;1.00;;;7.00;99.90;;;7.74;47.82;94601.59;4919567;29;20641;-82
2021/03/27 04:17:55;;;;;;;1.33;1.07;;;6.90;99.90;;;7.73;48.45;94607.88;4948094;28;20218;-81
2021/03/27 04:20:45;;;;;;;2.13;1.20;;;6.90;99.90;;;7.65;48.00;94592.41;4919750;29;20200;-82
2021/03/27 04:23:19;;;;;;;2.40;1.40;;;6.90;99.90;;;7.65;48.40;94608.25;4916790;29;20188;-82
2021/03/27 04:26:38;;;;;;;1.57;1.13;;;6.80;99.90;;;7.67;48.42;94617.53;4922825;29;20698;-82
2021/03/27 04:29:32;;;;;;;2.53;1.43;;;6.80;99.90;;;7.68;48.91;94615.72;4922488;29;20247;-82
2021/03/27 04:32:32;;;;;;;1.37;1.27;;;6.90;99.90;;;7.64;48.67;94617.19;4938588;29;20202;-82
2021/03/27 04:35:46;;;;;;;1.90;1.20;;;6.90;99.90;;;7.66;49.46;94625.66;4880260;29;20606;-82
2021/03/27 04:38:54;;;;;;;1.13;0.97;;;6.80;99.90;;;7.62;49.77;94616.63;4881547;29;20254;-82
2021/03/27 04:42:07;;;;;;;0.93;0.90;;;6.80;99.90;;;7.65;49.05;94624.88;4881491;29;20295;-82
2021/03/27 04:45:07;;;;;;;1.23;1.00;;;6.80;99.90;;;7.59;49.00;94625.78;4897904;29;20905;-82
2021/03/27 04:48:23;;;;;;;1.20;1.10;;;6.80;99.90;;;7.56;49.04;94622.78;4899704;29;20243;-82
2021/03/27 04:51:34;;;;;;;1.83;1.50;;;6.80;99.90;;;7.55;48.84;94629.91;4886829;29;20209;-83
2021/03/27 04:54:53;;;;;;;2.00;1.60;;;6.70;99.90;;;7.58;50.00;94639.22;4903393;29;20664;-82
2021/03/27 04:57:36;;;;;;;1.83;1.43;;;6.70;99.90;;;7.62;49.43;94637.72;4919588;29;20219;-82
2021/03/27 05:00:42;;;;;;;2.00;1.60;;;6.80;99.90;;;7.60;49.32;94639.75;4903650;29;20275;-82
2021/03/27 05:03:42;;;;;;;2.63;1.60;;;6.80;99.90;;;7.56;49.60;94639.41;4919259;29;20189;-81
2021/03/27 05:07:10;;;;;;;3.80;1.67;;;6.70;99.90;;;7.59;49.79;94644.22;4918823;29;20208;-82
2021/03/27 05:09:44;;;;;;;1.27;0.90;;;6.70;99.90;;;7.64;49.81;94656.75;4918976;29;20180;-82
2021/03/27 05:12:27;;;;;;;1.30;1.10;;;6.80;99.90;;;7.63;49.94;94648.03;4970058;28;20709;-82
2021/03/27 05:15:08;;;;;;;1.40;1.30;;;6.80;99.90;;;7.62;49.50;94643.00;4979583;28;20217;-82
2021/03/27 05:17:45;;;;;;;2.37;1.57;;;6.80;99.90;;;7.60;50.35;94661.69;4996027;28;20320;-82
2021/03/27 05:20:33;;;;;;;2.30;1.17;;;6.80;99.90;;;7.61;50.49;94659.84;4995845;28;20181;-82
2021/03/27 05:23:14;;;;;;;1.30;1.20;;;6.80;99.90;;;7.57;50.88;94670.03;4964462;28;20220;-82
2021/03/27 05:26:38;;;;;;;1.53;1.20;;;6.80;99.90;;;7.59;51.07;94685.63;4963272;28;20183;-82
2021/03/27 05:29:40;;;;;;;1.10;1.00;;;6.80;99.90;;;7.55;50.83;94680.03;4995625;28;20169;-82
2021/03/27 05:32:39;;;;;;;2.47;1.80;;;6.70;99.90;;;7.54;51.10;94701.34;4952745;28;20284;-82
2021/03/27 05:35:26;;;;;;;1.30;1.00;;;6.70;99.90;;;7.52;50.51;94706.06;4977258;28;20188;-82
2021/03/27 05:38:35;;;;;;;1.30;0.83;;;6.70;99.90;;;7.47;50.89;94698.81;4976536;28;20279;-82
2021/03/27 05:41:36;;;;;;;0.70;0.67;;;6.70;99.90;;;7.42;50.93;94716.34;4899526;29;20205;-82
2021/03/27 05:45:01;;;;;;;2.20;0.80;;;6.60;99.90;;;7.43;50.99;94720.56;4899802;29;20570;-82
2021/03/27 05:48:04;;;;;;;0.67;0.63;;;6.60;99.90;;;7.44;51.63;94736.19;4868903;29;20268;-82
2021/03/27 05:51:08;;;;;;;1.93;0.70;;;6.60;99.90;;;7.42;50.81;94745.34;4899919;29;20204;-82
2021/03/27 05:54:19;;;;;;;0.60;0.50;;;6.60;99.90;;;7.38;50.99;94750.25;4901119;29;20196;-82
2021/03/27 05:57:36;;;;;;;1.10;0.80;;;6.60;99.90;;;7.31;51.48;94768.00;4904285;29;20285;-82
2021/03/27 06:00:20;;;;;;;0.97;0.80;;;6.50;99.90;;;7.30;50.98;94758.47;4904185;29;20218;-82
2021/03/27 06:03:38;;;;;;;1.40;0.70;;;6.50;99.90;;;7.31;51.71;94777.72;4888195;29;20292;-82
2021/03/27 06:07:00;;;;;;;2.70;0.90;;;6.50;99.90;;;7.24;52.20;94785.72;4888946;29;20594;-82
2021/03/27 06:10:06;;;;;;;1.20;1.10;;;6.40;99.90;;;7.18;51.59;94797.94;4917794;29;20191;-82
2021/03/27 06:12:45;;;;;;;2.03;0.90;;;6.30;99.90;;;7.01;51.90;94796.94;4944331;29;20241;-82
2021/03/27 06:16:13;;;;;;;1.70;1.10;;;6.20;99.90;;;6.85;52.45;94802.78;4960567;29;20573;-82
2021/03/27 06:19:19;;;;;;;1.30;1.20;;;6.20;99.90;;;6.74;51.82;94816.69;5036135;28;20193;-82
2021/03/27 06:22:19;;;;;;;2.77;0.90;;;6.00;99.90;;;6.53;51.95;94817.09;5044368;28;20192;-82
2021/03/27 06:25:58;;;;;;;3.67;2.00;;;5.80;99.90;;;6.50;51.64;94820.16;5057091;28;20197;-82
2021/03/27 06:29:18;;;;;;;1.30;1.20;;;5.80;99.90;;;6.51;52.61;94840.22;4999452;28;20177;-85
2021/03/27 06:32:07;;;;;;;1.63;0.93;;;5.70;99.90;;;6.47;52.16;94846.94;5004736;28;20208;-92
2021/03/27 06:35:04;;;;;;;1.40;0.97;;;5.70;99.90;;;6.49;52.18;94853.59;4999708;28;20546;-86
2021/03/27 06:37:56;;;;;;;1.83;1.03;;;5.70;99.90;;;6.43;52.42;94864.16;5010503;28;20707;-83
2021/03/27 06:40:41;;;;;;;2.10;1.10;;;5.70;99.90;;;6.41;52.79;94860.97;5003418;28;20201;-84
2021/03/27 06:43:43;;;;;;;3.03;1.40;;;5.70;99.90;;;6.45;52.53;94885.81;4984583;28;20249;-84
2021/03/27 06:46:56;;;;;;;1.37;1.00;;;5.70;99.90;;;6.39;52.71;94889.31;5017490;28;20220;-83
2021/03/27 06:50:02;;;;;;;1.20;1.07;;;5.60;99.90;;;6.44;52.64;94900.81;5002584;28;20196;-82
2021/03/27 06:53:10;;;;;;;0.97;0.87;;;5.70;99.90;;;6.43;52.47;94901.03;5004786;28;20227;-84
2021/03/27 06:55:55;;;;;;;2.37;0.83;;;5.60;99.90;;;6.37;53.09;94901.88;5000070;28;20204;-84
2021/03/27 06:58:29;;;;;;;11.13;8.20;;;5.60;99.90;;;6.43;52.90;94906.28;4994647;28;20221;-83
2021/03/27 07:01:53;;;;;;;50.43;37.63;;;5.60;99.90;;;6.59;52.95;94921.56;5026375;28;20191;-84
2021/03/27 07:04:28;;;;;;;6.57;5.97;;;5.70;99.90;;;6.61;52.88;94915.03;5035368;28;20185;-83
2021/03/27 07:07:18;;;;;;;3.80;2.93;;;5.80;99.90;;;6.66;53.09;94917.03;5050712;28;20187;-84
2021/03/27 07:10:30;;;;;;;2.00;1.20;;;5.90;99.90;;;6.75;53.15;94928.13;5058011;28;20258;-83
2021/03/27 07:13:24;;;;;;;1.53;1.13;;;6.00;99.90;;;6.63;53.14;94933.28;5041340;28;20262;-85
2021/03/27 07:16:27;;;;;;;1.67;0.90;;;5.90;99.90;;;6.65;54.09;94941.75;5034553;28;20195;-83
2021/03/27 07:19:33;;;;;;;3.70;1.57;;;5.90;99.90;;;6.67;54.01;94950.28;5047184;28;20185;-83
2021/03/27 07:22:48;;;;;;;1.60;1.00;;;6.00;99.90;;;6.85;53.40;94949.53;5034087;28;20181;-84
2021/03/27 07:25:51;;;;;;;1.77;1.00;;;6.10;99.90;;;6.84;53.58;94946.09;5049174;28;20190;-85
2021/03/27 07:28:42;;;;;;;2.53;0.80;;;6.10;99.90;;;6.90;53.76;94942.59;5046117;28;20171;-82
2021/03/27 07:32:10;;;;;;;0.90;0.80;;;6.20;99.90;;;6.96;54.07;94941.72;5041534;28;20167;-83
2021/03/27 07:35:52;;;;;;;2.07;0.87;;;6.20;99.90;;;7.08;53.79;94960.28;5054358;28;20179;-82
2021/03/27 07:38:47;;;;;;;1.73;0.80;;;6.30;99.90;;;7.12;54.47;94964.06;4981066;28;20220;-85
2021/03/27 07:41:54;;;;;;;1.10;0.67;;;6.40;99.90;;;7.20;54.31;94967.25;4968078;28;20206;-83
2021/03/27 07:44:52;;;;;;;1.87;1.00;;;6.50;99.90;;;7.18;54.10;94961.38;4984122;28;20273;-82
2021/03/27 07:47:43;;;;;;;2.40;0.90;;;6.50;99.90;;;7.22;54.02;94973.09;4989741;28;20313;-84
2021/03/27 07:50:42;;;;;;;1.43;0.80;;;6.60;99.90;;;7.25;54.36;94995.63;4980929;28;20233;-82
2021/03/27 07:54:12;;;;;;;4.90;1.20;;;6.50;99.90;;;7.26;54.25;95001.66;5006806;28;20764;-82
2021/03/27 07:57:29;;;;;;;1.20;0.80;;;6.60;99.90;;;7.28;54.47;94997.00;5016412;28;20235;-83
2021/03/27 08:00:50;;;;;;;1.73;0.90;;;6.50;99.90;;;7.30;54.54;95006.31;4956294;29;20721;-83
2021/03/27 08:04:20;;;;;;;1.77;0.70;;;6.60;99.90;;;7.45;54.68;95011.25;4947782;29;20216;-83
2021/03/27 08:07:30;;;;;;;2.50;0.60;;;6.60;99.90;;;7.53;55.25;95013.59;4938648;29;20186;-83
2021/03/27 08:10:34;;;;;;;1.47;0.70;;;6.80;99.90;;;7.68;55.00;95022.78;4921546;29;20198;-83
2021/03/27 08:13:39;;;;;;;0.83;0.50;;;6.90;99.90;;;7.86;54.65;95008.78;4939143;29;20239;-83
2021/03/27 08:16:42;;;;;;;2.50;0.60;;;7.10;99.90;;;7.87;54.65;95010.38;4978183;28;20198;-83
2021/03/27 08:19:52;;;;;;;2.70;0.80;;;7.10;99.90;;;7.88;55.07;95019.94;4981081;28;20185;-82
2021/03/27 08:22:41;;;;;;;2.10;0.73;;;7.10;99.90;;;7.90;55.52;95001.22;4997103;28;20253;-82
2021/03/27 08:25:44;;;;;;;1.77;0.70;;;7.10;99.90;;;7.98;54.81;95012.31;4977108;28;20172;-82
2021/03/27 08:29:05;;;;;;;1.30;0.67;;;7.30;99.90;;;7.87;55.69;95026.22;4985844;28;20178;-81
2021/03/27 08:32:13;;;;;;;1.97;0.70;;;7.20;99.90;;;7.71;54.73;95019.69;4993497;28;20244;-82
2021/03/27 08:35:05;;;;;;;1.57;0.50;;;7.00;99.90;;;7.71;54.77;95042.63;4974084;28;20181;-81
2021/03/27 08:38:16;;;;;;;2.33;0.80;;;7.00;99.90;;;7.62;54.54;95036.81;5032046;28;20231;-83
2021/03/27 08:41:20;;;;;;;1.47;0.63;;;6.90;99.90;;;7.66;54.62;95040.66;5038776;28;20189;-83
2021/03/27 08:44:20;;;;;;;1.93;0.73;;;6.90;99.90;;;7.81;55.29;95042.13;5026543;28;20180;-81
2021/03/27 08:47:23;;;;;;;1.53;0.70;;;7.00;99.90;;;7.91;54.99;95043.25;5046042;28;20190;-81
2021/03/27 08:50:26;;;;;;;3.13;0.60;;;7.10;99.90;;;8.12;55.86;95056.00;5049522;28;20321;-81
2021/03/27 08:53:25;;;;;;;1.87;0.63;;;7.20;99.90;;;8.33;55.54;95056.63;5049266;28;20251;-84
2021/03/27 08:56:16;;;;;;;1.27;0.60;;;7.50;99.90;;;8.34;55.63;95058.22;5052125;28;20649;-81
2021/03/27 08:59:13;;;;;;;1.63;0.63;;;7.50;99.90;;;8.52;55.61;95069.56;5036827;28;20562;-82
2021/03/27 09:02:10;;;;;;;1.93;0.70;;;7.70;99.90;;;8.64;55.63;95061.69;5055542;28;20194;-82
2021/03/27 09:04:53;;;;;;;1.80;0.70;;;7.80;99.90;;;8.50;55.45;95061.03;5037142;28;20194;-82
2021/03/27 09:08:05;;;;;;;2.67;0.70;;;7.80;99.90;;;8.51;56.04;95061.84;5051754;28;20532;-80
2021/03/27 09:11:03;;;;;;;1.13;0.80;;;7.80;99.90;;;8.48;55.47;95075.50;5064123;28;20179;-80
2021/03/27 09:13:50;;;;;;;2.67;0.67;;;7.90;99.90;;;8.61;55.78;95084.09;5039923;28;20222;-81
2021/03/27 09:17:04;;;;;;;1.80;0.80;;;8.00;99.90;;;8.51;55.35;95067.13;5039011;28;20177;-80
2021/03/27 09:20:34;;;;;;;2.00;0.90;;;7.90;99.90;;;8.24;55.44;95063.97;4994162;28;20218;-81
2021/03/27 09:23:24;;;;;;;2.35;1.00;;;7.80;99.90;;;8.14;55.48;95072.44;4962378;28;20494;-83
2021/03/27 09:26:27;;;;;;;2.97;1.00;;;7.70;99.90;;;8.29;55.76;95080.03;4972970;28;20199;-81
2021/03/27 09:29:39;;;;;;;1.63;0.83;;;7.70;99.90;;;8.39;55.96;95082.94;4973291;28;20181;-80
2021/03/27 09:33:11;;;;;;;1.17;0.83;;;7.70;99.90;;;8.25;55.79;95087.53;4983841;28;20184;-81
2021/03/27 09:36:44;;;;;;;1.37;0.93;;;7.70;99.90;;;8.22;55.51;95081.91;4975129;28;20182;-80
2021/03/27 09:40:14;;;;;;;2.40;1.00;;;7.60;99.90;;;8.10;56.38;95092.38;4971364;28;20254;-81
2021/03/27 09:43:32;;;;;;;3.87;1.13;;;7.40;99.90;;;8.08;55.80;95091.78;4923752;29;20723;-82
2021/03/27 09:46:18;;;;;;;3.40;0.90;;;7.30;99.90;;;8.05;55.98;95084.31;4938125;29;20211;-82
2021/03/27 09:49:03;;;;;;;1.50;0.77;;;7.40;99.90;;;8.20;55.59;95090.03;4942881;29;20204;-85
2021/03/27 09:51:50;;;;;;;2.47;0.93;;;7.50;99.90;;;8.38;56.08;95088.44;4923155;29;20194;-86
2021/03/27 09:54:37;;;;;;;2.67;0.90;;;7.60;99.90;;;8.58;55.96;95100.38;4939522;29;20334;-82
2021/03/27 09:57:26;;;;;;;2.17;1.10;;;7.80;99.90;;;8.98;55.89;95108.59;4952794;29;20220;-83
2021/03/27 10:00:20;;;;;;;2.33;1.20;;;8.10;99.90;;;9.15;56.51;95099.00;4944117;29;20227;-83
2021/03/27 10:03:01;;;;;;;4.20;1.03;;;8.40;99.90;;;9.38;55.96;95092.13;4958678;28;20172;-81
2021/03/27 10:06:03;;;;;;;2.10;0.90;;;8.60;99.90;;;9.66;56.14;95097.59;4952916;28;20199;-82
2021/03/27 10:08:56;;;;;;;2.77;1.00;;;8.80;99.90;;;9.99;56.37;95097.03;4955475;29;20190;-84
2021/03/27 10:11:35;;;;;;;3.60;1.00;;;9.20;99.90;;;10.14;56.22;95086.81;4955564;29;20187;-83
2021/03/27 10:14:31;;;;;;;2.47;1.13;;;9.40;99.90;;;10.63;56.65;95091.53;4966986;28;20231;-88
2021/03/27 10:17:13;;;;;;;1.90;1.10;;;9.70;99.90;;;10.73;56.23;95083.78;4977009;28;20654;-82
2021/03/27 10:19:54;;;;;;;1.63;0.87;;;10.10;99.90;;;10.66;56.11;95091.06;5035572;28;20589;-82
2021/03/27 10:23:06;;;;;;;2.03;1.00;;;10.00;99.90;;;10.54;55.83;95087.63;5041418;28;20184;-82
2021/03/27 10:26:17;;;;;;;4.07;0.83;;;10.00;99.90;;;10.03;56.37;95091.06;5043221;28;20190;-86
2021/03/27 10:29:03;;;;;;;1.73;0.97;;;9.50;99.90;;;9.67;55.78;95075.41;5043964;28;20196;-84
2021/03/27 10:31:48;;;;;;;2.40;1.10;;;9.20;99.90;;;9.58;56.03;95088.16;5053785;28;20207;-84
2021/03/27 10:34:41;;;;;;;2.43;1.00;;;9.10;99.90;;;9.40;55.52;95069.72;5050929;28;20263;-82
2021/03/27 10:38:09;;;;;;;1.73;0.87;;;9.00;99.90;;;9.15;56.12;95088.44;5064685;28;20201;-83
2021/03/27 10:40:57;;;;;;;1.70;0.83;;;8.70;99.90;;;9.09;55.77;95093.81;5022411;28;20195;-82
2021/03/27 10:44:04;;;;;;;3.17;1.30;;;8.50;99.90;;;9.20;55.47;95085.88;5013927;28;20183;-84
2021/03/27 10:46:41;;;;;;;1.40;0.90;;;8.50;99.90;;;9.36;55.76;95086.28;4943361;29;20188;-92
2021/03/27 10:49:46;;;;;;;2.63;0.80;;;8.60;99.90;;;9.39;55.62;95084.00;4943135;29;20183;-83
2021/03/27 10:52:45;;;;;;;3.83;1.37;;;8.70;99.90;;;9.74;55.60;95081.38;4908506;29;20198;-83
2021/03/27 10:56:06;;;;;;;3.53;1.07;;;8.90;99.90;;;9.97;56.22;95083.22;4906209;29;20664;-82
2021/03/27 10:59:37;;;;;;;2.83;1.03;;;9.20;99.90;;;10.01;56.11;95087.00;4921555;29;20774;-83
2021/03/27 11:02:53;;;;;;;3.00;0.93;;;9.30;99.90;;;10.10;56.03;95085.63;4903444;29;20198;-83
2021/03/27 11:05:59;;;;;;;2.70;0.90;;;9.40;99.90;;;10.26;56.07;95103.50;4920782;29;21921;-82
2021/03/27 11:09:26;;;;;;;4.50;1.07;;;9.50;99.90;;;10.31;55.94;95084.25;4921863;29;20184;-82
2021/03/27 11:12:48;;;;;;;2.50;0.90;;;9.60;99.90;;;9.95;55.98;95087.94;4916421;29;20222;-80
2021/03/27 11:16:05;;;;;;;2.17;0.70;;;9.40;99.90;;;9.67;55.71;95093.94;4921081;29;20201;-82
2021/03/27 11:19:22;;;;;;;1.83;0.80;;;9.10;99.90;;;9.54;55.82;95078.25;4945735;29;20216;-83
2021/03/27 11:21:53;;;;;;;2.83;0.83;;;9.00;99.90;;;9.40;55.75;95100.69;4958479;29;20194;-82
2021/03/27 11:25:02;;;;;;;2.60;1.00;;;8.80;99.90;;;9.31;55.80;95091.44;5027113;28;20190;-83
2021/03/27 11:27:53;;;;;;;2.53;0.90;;;8.70;99.90;;;9.37;55.91;95090.56;5061686;28;20195;-84
2021/03/27 11:30:31;;;;;;;3.27;1.13;;;8.70;99.90;;;9.40;56.04;95092.75;5036726;28;20189;-84
2021/03/27 11:33:27;;;;;;;1.70;1.00;;;8.70;99.90;;;9.41;55.70;95100.44;5042066;28;20189;-83
2021/03/27 11:36:21;;;;;;;2.73;1.20;;;8.70;99.90;;;9.51;55.94;95107.81;5024644;28;20197;-82
2021/03/27 11:39:31;;;;;;;2.83;0.70;;;8.80;99.90;;;9.36;55.41;95104.81;5032624;28;20936;-82
2021/03/27 11:42:28;;;;;;;3.13;0.70;;;8.70;99.90;;;9.38;55.69;95108.81;5060273;28;20194;-83
2021/03/27 11:45:09;;;;;;;4.57;2.13;;;8.70;99.90;;;9.31;55.61;95104.66;5036066;28;20190;-83
2021/03/27 11:47:56;;;;;;;2.40;0.70;;;8.60;99.90;;;9.31;55.70;95115.25;5034460;28;20180;-84
2021/03/27 11:51:35;;;;;;;2.57;0.90;;;8.70;99.90;;;9.34;55.25;95102.38;5050298;28;20187;-82
2021/03/27 11:54:11;;;;;;;3.27;1.00;;;8.70;99.90;;;9.52;55.42;95118.19;5010765;28;20182;-84
2021/03/27 11:56:43;;;;;;;2.80;1.00;;;8.80;99.90;;;9.59;55.77;95115.44;5012241;28;20198;-82
2021/03/27 12:02:50;;;;;;;2.47;0.73;;;8.90;99.90;;;9.77;55.79;95115.31;5000355;28;20298;-84
2021/03/27 12:05:35;;;;;;;2.73;0.90;;;9.00;99.90;;;9.81;55.46;95119.13;5007717;28;20244;-83
2021/03/27 12:08:29;;;;;;;2.70;0.90;;;9.10;99.90;;;9.84;55.25;95123.97;5010866;28;20186;-82
2021/03/27 12:11:59;;;;;;;2.80;0.93;;;9.20;99.90;;;9.80;55.58;95112.22;5009349;28;20436;-82
2021/03/27 12:14:57;;;;;;;3.27;0.87;;;9.20;99.90;;;9.82;55.15;95123.38;4943577;29;20468;-83
2021/03/27 12:18:40;;;;;;;3.73;0.80;;;9.10;99.90;;;9.83;55.22;95119.72;4945454;28;20263;-83
2021/03/27 12:21:30;;;;;;;2.90;0.73;;;9.10;99.90;;;9.75;55.28;95112.91;4939923;29;20194;-83
2021/03/27 12:24:18;;;;;;;1.57;0.60;;;9.10;99.90;;;9.78;55.52;95112.44;4923951;29;20210;-82
2021/03/27 12:27:46;;;;;;;2.57;0.67;;;9.10;99.90;;;9.90;55.27;95114.31;4958294;29;20262;-83
2021/03/27 12:30:52;;;;;;;3.93;0.80;;;9.10;99.90;;;10.23;55.21;95118.00;4966471;28;20201;-81
2021/03/27 12:33:34;;;;;;;2.00;0.73;;;9.40;99.90;;;10.23;55.58;95112.72;4971010;28;20194;-82
2021/03/27 12:36:18;;;;;;;1.67;0.70;;;9.50;99.90;;;10.42;55.13;95107.25;4964697;28;20186;-83
2021/03/27 12:39:37;;;;;;;3.60;1.07;;;9.60;99.90;;;10.49;55.32;95111.41;4957681;28;20310;-84
2021/03/27 12:42:23;;;;;;;1.90;0.80;;;9.70;99.90;;;10.60;55.36;95115.06;4900944;29;20640;-85
2021/03/27 12:44:58;;;;;;;2.00;0.70;;;9.80;99.90;;;10.36;55.64;95084.34;4887597;29;20221;-80
2021/03/27 12:47:44;;;;;;;2.40;0.90;;;9.80;99.90;;;10.53;55.14;95111.75;4900042;29;20264;-86
2021/03/27 12:50:29;;;;;;;2.60;0.93;;;9.80;99.90;;;10.38;55.25;95116.72;4906230;29;20505;-83
2021/03/27 12:53:21;;;;;;;2.60;0.90;;;9.90;99.90;;;10.46;55.10;95132.25;4921932;29;20194;-81
2021/03/27 12:56:42;;;;;;;2.47;1.10;;;9.80;99.90;;;10.56;55.07;95125.34;4922061;29;20667;-81
2021/03/27 13:00:03;;;;;;;3.10;0.87;;;9.90;99.90;;;10.61;55.29;95124.63;4919034;29;20194;-81